Time;durP1;ratioP1;P1;durP2;ratioP2;P2;SDS_P1;SDS_P2;PMS_P1;PMS_P2;Temp;Humidity;BMP_temperature;BMP_pressure;BME280_temperature;BME280_humidity;BME280_pressure;Samples;Min_cycle;Max_cycle;Signal;HPM_P1;HPM_P2
2021/08/01 00:01:24;;;;;;;28.92;19.25;;;;;;;14.04;100.00;100849.16;5076179;28;20083;-63
2021/08/01 00:03:51;;;;;;;27.35;18.95;;;;;;;14.04;100.00;100845.63;5073233;28;20025;-64
2021/08/01 00:06:16;;;;;;;29.33;18.70;;;;;;;14.00;100.00;100849.22;5076677;28;20085;-60
2021/08/01 00:08:42;;;;;;;28.17;19.10;;;;;;;14.00;100.00;100849.22;5074855;28;20028;-60
2021/08/01 00:11:07;;;;;;;28.45;19.05;;;;;;;14.02;100.00;100842.94;5082884;28;20105;-61
2021/08/01 00:13:33;;;;;;;28.63;19.92;;;;;;;14.01;100.00;100854.50;5081416;28;20111;-61
2021/08/01 00:15:59;;;;;;;31.05;21.48;;;;;;;13.96;100.00;100843.03;5079424;28;20039;-60
2021/08/01 00:18:24;;;;;;;30.52;21.25;;;;;;;14.01;100.00;100842.97;5079636;28;20059;-63
2021/08/01 00:20:49;;;;;;;30.67;21.58;;;;;;;14.02;100.00;100847.41;5080260;28;20522;-64
2021/08/01 00:23:15;;;;;;;31.60;22.48;;;;;;;14.02;100.00;100842.94;5081394;28;20051;-61
2021/08/01 00:25:40;;;;;;;31.27;22.40;;;;;;;14.04;100.00;100841.19;5081093;28;20044;-64
2021/08/01 00:28:06;;;;;;;32.03;23.33;;;;;;;14.03;100.00;100841.19;5080896;28;20031;-62
2021/08/01 00:30:31;;;;;;;32.17;23.63;;;;;;;13.99;100.00;100836.81;5082577;28;20024;-64
2021/08/01 00:32:56;;;;;;;31.83;23.35;;;;;;;13.96;100.00;100835.06;5080130;28;20036;-62
2021/08/01 00:35:22;;;;;;;33.00;23.10;;;;;;;13.95;100.00;100828.88;5079578;28;20060;-63
2021/08/01 00:37:47;;;;;;;30.67;21.88;;;;;;;13.99;100.00;100828.84;5079932;28;20103;-63
2021/08/01 00:40:13;;;;;;;32.75;22.65;;;;;;;13.94;100.00;100835.06;5080301;28;20032;-61
2021/08/01 00:42:41;;;;;;;32.08;22.48;;;;;;;13.92;100.00;100828.91;5080680;28;20498;-63
2021/08/01 00:45:07;;;;;;;31.55;22.80;;;;;;;13.88;100.00;100834.25;5080897;28;20092;-62
2021/08/01 00:47:34;;;;;;;33.05;22.48;;;;;;;13.88;100.00;100827.16;5081005;28;20036;-62
2021/08/01 00:50:07;;;;;;;30.85;22.15;;;;;;;13.85;100.00;100832.50;5078893;28;20115;-63
2021/08/01 00:52:34;;;;;;;31.42;22.83;;;;;;;13.83;100.00;100820.13;5079645;28;20461;-61
2021/08/01 00:54:59;;;;;;;31.27;21.70;;;;;;;13.84;100.00;100819.25;5081037;28;20432;-62
2021/08/01 00:57:24;;;;;;;32.15;22.15;;;;;;;13.82;100.00;100813.94;5074118;28;20020;-64
2021/08/01 00:59:50;;;;;;;32.75;22.02;;;;;;;13.85;100.00;100823.63;5078299;28;20031;-63
2021/08/01 01:02:18;;;;;;;32.42;24.10;;;;;;;13.78;100.00;100814.88;5081639;28;20091;-63
2021/08/01 01:04:46;;;;;;;31.65;23.25;;;;;;;13.76;100.00;100813.97;5076839;28;20034;-60
2021/08/01 01:07:25;;;;;;;31.67;22.70;;;;;;;13.78;100.00;100817.53;5075531;28;20118;-63
2021/08/01 01:10:00;;;;;;;34.25;24.27;;;;;;;13.71;100.00;100813.16;5073247;28;20032;-61
2021/08/01 01:12:35;;;;;;;33.53;24.30;;;;;;;13.72;100.00;100817.59;5076005;28;20020;-64
2021/08/01 01:15:10;;;;;;;34.33;25.20;;;;;;;13.70;100.00;100822.00;5076738;28;20024;-62
2021/08/01 01:17:36;;;;;;;33.38;24.65;;;;;;;13.70;100.00;100824.66;5077798;28;20025;-64
2021/08/01 01:20:17;;;;;;;33.25;24.33;;;;;;;13.70;100.00;100819.34;5076286;28;20070;-63
2021/08/01 01:22:45;;;;;;;32.65;22.95;;;;;;;13.69;100.00;100822.91;5079258;28;20122;-64
2021/08/01 01:25:41;;;;;;;33.65;23.48;;;;;;;13.62;100.00;100813.25;5077388;28;21319;-62
2021/08/01 01:28:17;;;;;;;33.10;23.83;;;;;;;13.56;100.00;100815.03;5073648;28;20063;-63
2021/08/01 01:30:51;;;;;;;32.25;23.05;;;;;;;13.50;100.00;100815.09;5079480;28;20028;-63
2021/08/01 01:33:18;;;;;;;35.63;24.20;;;;;;;13.48;100.00;100813.34;5077805;28;20047;-62
2021/08/01 01:35:49;;;;;;;33.97;23.75;;;;;;;13.42;100.00;100816.94;5076575;28;20044;-63
2021/08/01 01:38:14;;;;;;;32.78;23.55;;;;;;;13.42;100.00;100812.50;5079239;28;20025;-62
2021/08/01 01:40:41;;;;;;;35.70;24.45;;;;;;;13.37;100.00;100810.78;5078099;28;20496;-61
2021/08/01 01:43:07;;;;;;;33.65;23.65;;;;;;;13.31;100.00;100817.00;5075711;28;20044;-60
2021/08/01 01:45:34;;;;;;;34.30;24.02;;;;;;;13.27;100.00;100814.38;5080482;28;20017;-61
2021/08/01 01:48:01;;;;;;;35.58;24.63;;;;;;;13.23;100.00;100806.41;5080564;28;20076;-61
2021/08/01 01:50:26;;;;;;;34.25;23.85;;;;;;;13.16;100.00;100810.00;5079170;28;20025;-60
2021/08/01 01:52:54;;;;;;;34.92;24.20;;;;;;;13.12;100.00;100810.94;5078703;28;20047;-61
2021/08/01 01:55:23;;;;;;;35.08;25.30;;;;;;;13.14;100.00;100809.13;5078222;28;20132;-60
2021/08/01 01:57:49;;;;;;;35.33;24.40;;;;;;;13.09;100.00;100805.63;5077088;28;20024;-60
2021/08/01 02:00:15;;;;;;;36.42;25.95;;;;;;;13.09;100.00;100787.03;5078924;28;20029;-61
2021/08/01 02:02:40;;;;;;;35.30;25.13;;;;;;;13.02;100.00;100788.88;5076042;28;20037;-61
2021/08/01 02:05:06;;;;;;;36.72;25.70;;;;;;;13.00;100.00;100784.47;5078602;28;20032;-61
2021/08/01 02:07:33;;;;;;;35.67;25.17;;;;;;;12.91;100.00;100791.59;5078440;28;20028;-61
2021/08/01 02:10:08;;;;;;;37.75;25.45;;;;;;;12.90;100.00;100789.84;5080098;28;20024;-61
2021/08/01 02:12:48;;;;;;;36.75;24.38;;;;;;;12.87;100.00;100795.16;5077216;28;20055;-61
2021/08/01 02:15:16;;;;;;;36.08;25.00;;;;;;;12.83;100.00;100790.75;5076585;28;20036;-61
2021/08/01 02:17:47;;;;;;;36.78;24.67;;;;;;;12.85;100.00;100796.94;5078747;28;20027;-61
2021/08/01 02:20:15;;;;;;;36.38;24.10;;;;;;;12.74;100.00;100796.09;5076229;28;20028;-61
2021/08/01 02:22:43;;;;;;;36.40;23.95;;;;;;;12.74;100.00;100801.41;5079718;28;20017;-60
2021/08/01 02:25:10;;;;;;;36.85;25.02;;;;;;;12.71;100.00;100798.78;5079871;28;20028;-60
2021/08/01 02:27:37;;;;;;;39.47;26.38;;;;;;;12.70;100.00;100803.22;5077169;28;20028;-60
2021/08/01 02:30:04;;;;;;;36.63;25.48;;;;;;;12.66;100.00;100797.94;5079497;28;20070;-60
2021/08/01 02:32:31;;;;;;;39.25;25.65;;;;;;;12.68;100.00;100797.03;5078329;28;20426;-61
2021/08/01 02:34:57;;;;;;;38.42;25.70;;;;;;;12.67;100.00;100803.22;5082939;28;20027;-61
2021/08/01 02:37:24;;;;;;;38.35;25.30;;;;;;;12.65;100.00;100804.13;5080283;28;20043;-60
2021/08/01 02:39:50;;;;;;;39.38;25.80;;;;;;;12.60;100.00;100808.56;5080758;28;20043;-61
2021/08/01 02:42:16;;;;;;;38.30;25.48;;;;;;;12.59;100.00;100804.16;5078021;28;20373;-61
2021/08/01 02:44:43;;;;;;;36.92;25.80;;;;;;;12.56;100.00;100807.69;5078924;28;20456;-61
2021/08/01 02:47:13;;;;;;;38.67;25.10;;;;;;;12.53;100.00;100795.31;5078576;28;20027;-61
2021/08/01 02:49:42;;;;;;;37.53;25.48;;;;;;;12.52;100.00;100800.63;5078611;28;20458;-61
2021/08/01 02:52:11;;;;;;;39.25;25.15;;;;;;;12.48;100.00;100797.13;5076647;28;20028;-60
2021/08/01 02:54:39;;;;;;;38.17;26.00;;;;;;;12.49;100.00;100795.34;5076511;28;20020;-62
2021/08/01 02:57:10;;;;;;;38.33;25.90;;;;;;;12.44;100.00;100790.06;5078183;28;20115;-60
2021/08/01 02:59:36;;;;;;;38.63;25.85;;;;;;;12.42;100.00;100796.25;5077702;28;20028;-61
2021/08/01 03:02:02;;;;;;;38.75;25.80;;;;;;;12.39;100.00;100797.16;5079729;28;20093;-61
2021/08/01 03:04:28;;;;;;;38.15;25.50;;;;;;;12.40;100.00;100790.97;5076982;28;20438;-61
2021/08/01 03:06:54;;;;;;;42.08;27.20;;;;;;;12.37;100.00;100793.63;5079474;28;20020;-61
2021/08/01 03:09:20;;;;;;;39.22;26.05;;;;;;;12.37;100.00;100798.94;5075751;28;20028;-61
2021/08/01 03:11:45;;;;;;;42.00;26.00;;;;;;;12.33;100.00;100787.47;5073229;28;20391;-61
2021/08/01 03:14:12;;;;;;;41.50;25.95;;;;;;;12.33;100.00;100797.19;5076727;28;20033;-61
2021/08/01 03:16:38;;;;;;;43.00;26.95;;;;;;;12.31;100.00;100793.66;5072542;28;20017;-60
2021/08/01 03:19:03;;;;;;;42.63;27.02;;;;;;;12.31;100.00;100798.97;5072629;28;20025;-60
2021/08/01 03:21:28;;;;;;;43.05;26.73;;;;;;;12.35;100.00;100796.28;5075131;28;20094;-60
2021/08/01 03:23:54;;;;;;;43.28;26.40;;;;;;;12.32;100.00;100801.59;5076458;28;20035;-61
2021/08/01 03:26:19;;;;;;;42.22;26.77;;;;;;;12.28;100.00;100801.63;5078015;28;20028;-61
2021/08/01 03:28:44;;;;;;;44.88;26.95;;;;;;;12.26;100.00;100796.34;5077917;28;20024;-60
2021/08/01 03:31:10;;;;;;;42.50;26.50;;;;;;;12.23;100.00;100801.63;5074272;28;20036;-61
2021/08/01 03:33:35;;;;;;;45.13;26.25;;;;;;;12.23;100.00;100800.75;5075651;28;20459;-60
2021/08/01 03:36:00;;;;;;;44.20;26.70;;;;;;;12.20;100.00;100794.59;5074614;28;20035;-61
2021/08/01 03:38:26;;;;;;;42.22;25.42;;;;;;;12.20;100.00;100791.94;5074550;28;20028;-61
2021/08/01 03:40:51;;;;;;;42.92;25.73;;;;;;;12.19;100.00;100790.16;5072895;28;20111;-60
2021/08/01 03:43:17;;;;;;;44.95;26.98;;;;;;;12.20;100.00;100797.22;5076858;28;20024;-61
2021/08/01 03:45:42;;;;;;;45.90;25.85;;;;;;;12.24;100.00;100797.22;5073454;28;20462;-61
2021/08/01 03:48:07;;;;;;;42.22;26.02;;;;;;;12.22;100.00;100783.97;5076895;28;20028;-60
2021/08/01 03:50:33;;;;;;;45.63;25.38;;;;;;;12.23;100.00;100796.31;5074869;28;20078;-60
2021/08/01 03:52:58;;;;;;;44.25;25.52;;;;;;;12.20;100.00;100794.59;5074604;28;21385;-61
2021/08/01 03:55:23;;;;;;;44.90;25.83;;;;;;;12.23;100.00;100800.75;5073761;28;20443;-61
2021/08/01 03:57:49;;;;;;;46.47;26.60;;;;;;;12.20;100.00;100801.63;5072841;28;20500;-60
2021/08/01 04:00:14;;;;;;;46.13;26.40;;;;;;;12.28;100.00;100809.59;5074379;28;20025;-61
2021/08/01 04:02:40;;;;;;;48.40;26.00;;;;;;;12.38;100.00;100811.31;5076404;28;20048;-60
2021/08/01 04:05:06;;;;;;;47.20;26.02;;;;;;;12.46;100.00;100813.91;5073471;28;20025;-61
2021/08/01 04:07:32;;;;;;;50.25;26.70;;;;;;;12.54;100.00;100813.00;5076360;28;20032;-60
2021/08/01 04:09:57;;;;;;;60.13;31.77;;;;;;;12.60;100.00;100816.53;5074379;28;20024;-61
2021/08/01 04:12:23;;;;;;;66.95;31.42;;;;;;;12.63;100.00;100820.03;5077106;28;20070;-60
2021/08/01 04:14:49;;;;;;;71.63;32.38;;;;;;;12.68;100.00;100810.31;5077271;28;20032;-60
2021/08/01 04:17:18;;;;;;;91.18;36.92;;;;;;;12.72;100.00;100814.69;5078685;28;20025;-60
2021/08/01 04:19:46;;;;;;;94.28;36.10;;;;;;;12.76;100.00;100812.91;5077178;28;20032;-60
2021/08/01 04:22:16;;;;;;;94.90;36.92;;;;;;;12.77;100.00;100806.72;5076123;28;20048;-61
2021/08/01 04:24:42;;;;;;;100.18;39.17;;;;;;;12.79;100.00;100799.63;5077251;28;20063;-60
2021/08/01 04:27:07;;;;;;;107.40;39.80;;;;;;;12.83;100.00;100803.13;5076602;28;20048;-60
2021/08/01 04:29:33;;;;;;;110.28;41.63;;;;;;;12.84;100.00;100811.09;5077443;28;20074;-60
2021/08/01 04:31:59;;;;;;;107.68;40.35;;;;;;;12.87;100.00;100808.44;5077347;28;20027;-60
2021/08/01 04:34:24;;;;;;;101.93;40.30;;;;;;;12.92;100.00;100813.72;5075996;28;20074;-60
2021/08/01 04:36:49;;;;;;;108.40;42.05;;;;;;;12.97;100.00;100816.31;5074905;28;20032;-60
2021/08/01 04:39:15;;;;;;;106.35;41.67;;;;;;;13.02;100.00;100820.72;5076996;28;20037;-61
2021/08/01 04:41:40;;;;;;;107.45;43.28;;;;;;;13.04;100.00;100815.41;5075919;28;20111;-60
2021/08/01 04:44:06;;;;;;;107.40;43.53;;;;;;;13.04;100.00;100815.41;5078809;28;20524;-60
2021/08/01 04:46:32;;;;;;;110.65;43.65;;;;;;;13.05;100.00;100806.56;5078232;28;20080;-61
2021/08/01 04:48:57;;;;;;;99.03;42.50;;;;;;;13.11;100.00;100809.16;5075204;28;20418;-61
2021/08/01 04:51:22;;;;;;;101.60;43.42;;;;;;;13.13;100.00;100820.63;5075024;28;20039;-61
2021/08/01 04:53:48;;;;;;;97.57;43.67;;;;;;;13.13;100.00;100807.38;5077470;28;20032;-60
2021/08/01 04:56:13;;;;;;;90.85;41.22;;;;;;;13.13;100.00;100803.84;5079923;28;20036;-60
2021/08/01 04:58:38;;;;;;;83.63;40.72;;;;;;;13.15;100.00;100802.03;5080035;28;20020;-61
2021/08/01 05:01:14;;;;;;;84.53;40.22;;;;;;;13.17;100.00;100803.81;5078902;28;20068;-60
2021/08/01 05:03:39;;;;;;;83.45;40.28;;;;;;;13.20;100.00;100802.91;5076625;28;20038;-60
2021/08/01 05:06:05;;;;;;;81.63;39.50;;;;;;;13.22;100.00;100802.00;5079212;28;20020;-61
2021/08/01 05:08:30;;;;;;;77.88;39.15;;;;;;;13.20;100.00;100802.91;5080171;28;20039;-61
2021/08/01 05:10:55;;;;;;;73.68;37.70;;;;;;;13.24;100.00;100812.63;5079864;28;20028;-61
2021/08/01 05:13:21;;;;;;;74.78;38.10;;;;;;;13.24;100.00;100809.97;5078282;28;20125;-61
2021/08/01 05:15:46;;;;;;;63.35;34.35;;;;;;;13.20;100.00;100806.44;5079032;28;20496;-61
2021/08/01 05:18:11;;;;;;;59.78;33.42;;;;;;;13.20;100.00;100809.09;5078739;28;20024;-61
2021/08/01 05:20:44;;;;;;;65.10;35.53;;;;;;;13.22;100.00;100811.72;5079268;28;20040;-61
2021/08/01 05:23:10;;;;;;;61.58;34.67;;;;;;;13.24;100.00;100812.63;5077597;28;20081;-61
2021/08/01 05:25:35;;;;;;;66.25;34.28;;;;;;;13.28;100.00;100821.44;5078670;28;20020;-61
2021/08/01 05:28:01;;;;;;;62.28;34.75;;;;;;;13.28;100.00;100813.47;5079413;28;20016;-61
2021/08/01 05:30:26;;;;;;;63.30;34.08;;;;;;;13.27;100.00;100809.06;5076919;28;20024;-60
2021/08/01 05:32:51;;;;;;;63.97;34.38;;;;;;;13.27;100.00;100815.25;5077112;28;20094;-60
2021/08/01 05:35:17;;;;;;;62.08;32.75;;;;;;;13.29;100.00;100809.94;5077421;28;20020;-63
2021/08/01 05:37:42;;;;;;;57.60;33.17;;;;;;;13.30;100.00;100809.03;5074059;28;20036;-64
2021/08/01 05:40:10;;;;;;;58.40;31.40;;;;;;;13.27;100.00;100807.28;5074564;28;20463;-63
2021/08/01 05:42:36;;;;;;;59.10;32.13;;;;;;;13.29;100.00;100812.59;5079112;28;20029;-62
2021/08/01 05:45:01;;;;;;;57.08;33.15;;;;;;;13.25;100.00;100819.66;5075543;28;20066;-65
2021/08/01 05:47:26;;;;;;;56.22;32.20;;;;;;;13.27;100.00;100811.72;5079236;28;20035;-63
2021/08/01 05:49:52;;;;;;;59.40;31.88;;;;;;;13.32;100.00;100818.72;5077834;28;20020;-64
2021/08/01 05:52:17;;;;;;;56.28;31.48;;;;;;;13.36;100.00;100811.69;5079410;28;20036;-66
2021/08/01 05:54:43;;;;;;;53.05;30.90;;;;;;;13.42;100.00;100803.66;5079035;28;20089;-65
2021/08/01 05:57:08;;;;;;;53.22;30.38;;;;;;;13.43;100.00;100802.78;5076975;28;20028;-63
2021/08/01 05:59:33;;;;;;;53.10;31.30;;;;;;;13.43;100.00;100800.13;5082363;28;20414;-66
2021/08/01 06:02:00;;;;;;;53.03;31.08;;;;;;;13.42;100.00;100793.91;5082063;28;20090;-64
2021/08/01 06:04:25;;;;;;;50.70;29.67;;;;;;;13.49;100.00;100818.66;5078615;28;20064;-64
2021/08/01 06:06:50;;;;;;;49.42;28.48;;;;;;;13.53;100.00;100812.41;5081350;28;20070;-63
2021/08/01 06:09:16;;;;;;;47.67;28.92;;;;;;;13.51;100.00;100814.19;5082894;28;20048;-61
2021/08/01 06:11:41;;;;;;;51.40;28.52;;;;;;;13.56;100.00;100811.53;5078082;28;20435;-62
2021/08/01 06:14:06;;;;;;;49.13;28.00;;;;;;;13.59;100.00;100803.53;5079995;28;20027;-64
2021/08/01 06:16:32;;;;;;;49.40;28.60;;;;;;;13.55;100.00;100810.63;5078477;28;20036;-66
2021/08/01 06:18:57;;;;;;;52.10;30.20;;;;;;;13.54;100.00;100813.28;5079320;28;20024;-62
2021/08/01 06:21:22;;;;;;;52.50;30.65;;;;;;;13.57;100.00;100805.28;5076761;28;20433;-64
2021/08/01 06:23:49;;;;;;;50.92;29.52;;;;;;;13.51;100.00;100806.22;5081557;28;20072;-64
2021/08/01 06:26:16;;;;;;;52.85;29.70;;;;;;;13.53;100.00;100801.81;5078663;28;20025;-65
2021/08/01 06:28:41;;;;;;;48.00;28.35;;;;;;;13.63;100.00;100809.69;5076037;28;20131;-64
2021/08/01 06:31:08;;;;;;;48.15;26.85;;;;;;;13.73;100.00;100814.00;5078422;28;20029;-63
2021/08/01 06:33:34;;;;;;;46.55;27.38;;;;;;;13.73;100.00;100811.34;5075965;28;20171;-62
2021/08/01 06:36:03;;;;;;;45.78;27.00;;;;;;;13.76;100.00;100811.31;5075399;28;20024;-63
2021/08/01 06:38:29;;;;;;;46.65;26.70;;;;;;;13.80;100.00;100809.53;5074939;28;20025;-62
2021/08/01 06:40:54;;;;;;;43.10;26.38;;;;;;;13.78;100.00;100814.88;5075238;28;20106;-63
2021/08/01 06:43:19;;;;;;;44.85;25.95;;;;;;;13.78;100.00;100817.53;5073761;28;20454;-64
2021/08/01 06:45:45;;;;;;;42.72;24.88;;;;;;;13.76;100.00;100819.28;5076552;28;20150;-64
2021/08/01 06:48:10;;;;;;;41.20;23.40;;;;;;;13.89;100.00;100823.63;5073318;28;20030;-62
2021/08/01 06:50:37;;;;;;;41.05;24.60;;;;;;;13.88;100.00;100823.63;5077197;28;20107;-64
2021/08/01 06:53:03;;;;;;;41.97;23.17;;;;;;;13.95;100.00;100826.22;5076931;28;20485;-62
2021/08/01 06:55:28;;;;;;;41.30;23.92;;;;;;;13.97;100.00;100820.00;5072791;28;20039;-65
2021/08/01 06:57:54;;;;;;;43.95;24.27;;;;;;;14.03;100.00;100827.91;5076717;28;20024;-62
2021/08/01 07:00:22;;;;;;;40.13;23.48;;;;;;;14.11;100.00;100832.25;5075238;28;20036;-61
2021/08/01 07:02:55;;;;;;;41.78;24.15;;;;;;;14.13;100.00;100840.22;5074850;28;20056;-65
2021/08/01 07:05:21;;;;;;;41.08;24.08;;;;;;;14.18;100.00;100832.19;5073703;28;20530;-64
2021/08/01 07:07:46;;;;;;;43.72;25.20;;;;;;;14.22;100.00;100834.78;5075609;28;20107;-64
2021/08/01 07:10:11;;;;;;;41.25;23.27;;;;;;;14.37;100.00;100835.50;5077265;28;20421;-64
2021/08/01 07:12:41;;;;;;;44.63;23.48;;;;;;;14.48;100.00;100826.50;5076674;28;20035;-63
2021/08/01 07:15:08;;;;;;;41.35;23.05;;;;;;;14.50;100.00;100834.47;5075894;28;20029;-61
2021/08/01 07:17:33;;;;;;;43.20;23.33;;;;;;;14.51;100.00;100832.69;5077111;28;20031;-70
2021/08/01 07:19:59;;;;;;;46.33;24.77;;;;;;;14.60;100.00;100836.09;5074438;28;20161;-68
2021/08/01 07:22:24;;;;;;;42.53;23.33;;;;;;;14.59;100.00;100839.69;5074470;28;20022;-68
2021/08/01 07:24:49;;;;;;;44.63;23.95;;;;;;;14.59;100.00;100834.38;5077278;28;20044;-70
2021/08/01 07:27:14;;;;;;;44.85;23.98;;;;;;;14.64;100.00;100832.53;5075589;28;20032;-62
2021/08/01 07:29:40;;;;;;;46.13;24.70;;;;;;;14.66;100.00;100831.66;5073668;28;20028;-63
2021/08/01 07:32:05;;;;;;;45.78;24.30;;;;;;;14.77;100.00;100837.72;5076347;28;20054;-62
2021/08/01 07:34:31;;;;;;;44.80;24.20;;;;;;;14.79;100.00;100841.25;5077182;28;20446;-62
2021/08/01 07:36:57;;;;;;;44.33;23.70;;;;;;;14.86;100.00;100847.38;5074649;28;20020;-64
2021/08/01 07:39:22;;;;;;;44.17;23.38;;;;;;;14.93;100.00;100851.72;5077048;28;20051;-62
2021/08/01 07:41:47;;;;;;;43.47;22.67;;;;;;;14.78;100.00;100844.78;5076021;28;20865;-65
2021/08/01 07:44:13;;;;;;;44.50;23.63;;;;;;;14.78;100.00;100842.13;5078404;28;20028;-65
2021/08/01 07:46:38;;;;;;;43.10;23.42;;;;;;;14.92;100.00;100850.81;5075620;28;20021;-62
2021/08/01 07:49:03;;;;;;;41.63;22.42;;;;;;;15.03;100.00;100853.34;5073788;28;20036;-63
2021/08/01 07:51:29;;;;;;;42.97;21.95;;;;;;;15.04;100.00;100846.22;5076135;28;20121;-62
2021/08/01 07:53:54;;;;;;;42.35;22.45;;;;;;;15.04;100.00;100851.56;5077574;28;20104;-65
2021/08/01 07:56:19;;;;;;;43.90;23.77;;;;;;;14.93;100.00;100844.59;5079482;28;20030;-62
2021/08/01 07:58:44;;;;;;;42.67;23.38;;;;;;;14.95;100.00;100844.56;5077273;28;20016;-64
2021/08/01 08:01:10;;;;;;;44.15;24.17;;;;;;;14.92;100.00;100845.50;5076725;28;20115;-61
2021/08/01 08:03:35;;;;;;;43.33;24.08;;;;;;;14.93;100.00;100852.59;5076756;28;20024;-61
2021/08/01 08:06:05;;;;;;;43.92;24.30;;;;;;;14.98;100.00;100842.78;5074938;28;20382;-61
2021/08/01 08:08:31;;;;;;;44.95;24.38;;;;;;;15.03;100.00;100845.34;5078049;28;20111;-62
2021/08/01 08:10:56;;;;;;;42.00;22.65;;;;;;;15.29;100.00;100837.00;5077913;28;20039;-67
2021/08/01 08:13:22;;;;;;;44.20;24.15;;;;;;;15.58;100.00;100842.75;5079422;28;20024;-61
2021/08/01 08:15:47;;;;;;;42.20;24.02;;;;;;;15.74;99.57;100848.69;5076581;28;20032;-64
2021/08/01 08:18:12;;;;;;;42.75;23.13;;;;;;;15.67;95.07;100838.16;5075448;28;20064;-63
2021/08/01 08:20:38;;;;;;;40.75;23.00;;;;;;;15.64;96.45;100837.31;5077956;28;20471;-65
2021/08/01 08:23:03;;;;;;;43.60;24.33;;;;;;;15.78;96.13;100831.75;5075723;28;20028;-64
2021/08/01 08:25:28;;;;;;;42.03;23.30;;;;;;;15.93;94.94;100838.63;5079320;28;20115;-63
2021/08/01 08:27:54;;;;;;;41.10;23.35;;;;;;;15.92;95.23;100842.22;5074938;28;20024;-65
2021/08/01 08:30:19;;;;;;;40.67;23.58;;;;;;;15.97;94.87;100835.88;5078112;28;20479;-63
2021/08/01 08:32:45;;;;;;;41.45;22.90;;;;;;;16.15;89.55;100839.09;5080561;28;20020;-63
2021/08/01 08:35:10;;;;;;;41.47;23.77;;;;;;;16.19;92.24;100835.47;5082536;28;20028;-71
2021/08/01 08:37:47;;;;;;;41.97;24.70;;;;;;;16.20;90.99;100842.56;5078944;28;20024;-64
2021/08/01 08:40:13;;;;;;;41.97;24.73;;;;;;;16.27;89.27;100849.56;5078798;28;20024;-63
2021/08/01 08:42:40;;;;;;;44.15;25.23;;;;;;;16.37;90.50;100844.94;5076564;28;20090;-63
2021/08/01 08:45:06;;;;;;;42.70;24.35;;;;;;;16.45;89.19;100850.09;5080098;28;20028;-62
2021/08/01 08:47:36;;;;;;;38.47;21.95;;;;;;;16.56;87.21;100858.78;5078124;28;20051;-63
2021/08/01 08:50:03;;;;;;;38.25;21.85;;;;;;;16.41;88.41;100851.97;5084368;28;20047;-62
2021/08/01 08:52:30;;;;;;;40.35;22.42;;;;;;;16.31;90.32;100859.25;5077902;28;20024;-62
2021/08/01 08:54:59;;;;;;;40.10;22.70;;;;;;;16.17;89.94;100855.97;5078877;28;20387;-62
2021/08/01 08:57:32;;;;;;;39.90;22.77;;;;;;;16.14;90.90;100856.91;5076682;28;20033;-63
2021/08/01 09:00:07;;;;;;;40.13;22.42;;;;;;;16.31;90.85;100858.38;5080424;28;20089;-63
2021/08/01 09:02:36;;;;;;;39.63;22.67;;;;;;;16.32;88.91;100863.66;5080022;28;20109;-62
2021/08/01 09:05:03;;;;;;;39.58;22.15;;;;;;;16.33;89.86;100865.44;5077932;28;20052;-64
2021/08/01 09:07:28;;;;;;;39.85;23.58;;;;;;;16.29;nan;100861.06;5075176;28;20032;-62
2021/08/01 09:09:54;;;;;;;39.20;22.65;;;;;;;16.31;90.75;100866.38;5079866;28;20020;-63
2021/08/01 09:12:20;;;;;;;40.13;23.77;;;;;;;16.26;89.91;100865.59;5078242;28;20039;-63
2021/08/01 09:14:46;;;;;;;40.88;23.92;;;;;;;16.39;90.26;100859.09;5078066;28;20028;-63
2021/08/01 09:17:11;;;;;;;39.90;23.08;;;;;;;16.60;87.89;100863.16;5079741;28;20032;-63
2021/08/01 09:19:39;;;;;;;38.10;22.35;;;;;;;16.58;87.39;100869.41;5078767;28;20089;-64
2021/08/01 09:22:10;;;;;;;40.35;24.00;;;;;;;16.57;89.40;100873.84;5078028;28;20523;-63
2021/08/01 09:24:36;;;;;;;40.63;23.20;;;;;;;16.70;87.61;100871.81;5079459;28;20024;-65
2021/08/01 09:27:03;;;;;;;38.75;22.33;;;;;;;16.65;87.45;100871.94;5081556;28;20046;-67
2021/08/01 09:29:30;;;;;;;41.88;24.83;;;;;;;16.55;88.69;100867.69;5076287;28;20469;-66
2021/08/01 09:32:00;;;;;;;41.03;24.00;;;;;;;16.62;89.26;100866.66;5079413;28;20017;-65
2021/08/01 09:34:27;;;;;;;41.65;24.73;;;;;;;16.67;88.58;100856.78;5080512;28;20020;-65
2021/08/01 09:37:04;;;;;;;39.25;22.73;;;;;;;16.93;87.37;100865.16;5076602;28;20108;-67
2021/08/01 09:39:43;;;;;;;40.45;23.55;;;;;;;17.23;85.22;100866.28;5077854;28;20553;-66
2021/08/01 09:42:10;;;;;;;39.72;24.48;;;;;;;17.40;82.76;100866.78;5077384;28;20102;-63
2021/08/01 09:44:38;;;;;;;38.97;22.60;;;;;;;17.81;80.13;100861.31;5081181;28;20036;-68
2021/08/01 09:47:03;;;;;;;38.40;22.83;;;;;;;17.88;79.05;100859.34;5077995;28;20382;-70
2021/08/01 09:49:29;;;;;;;37.70;22.48;;;;;;;17.80;80.33;100862.22;5078264;28;20107;-64
2021/08/01 09:52:01;;;;;;;36.53;22.02;;;;;;;18.03;80.21;100853.66;5080610;28;20052;-63
2021/08/01 09:54:46;;;;;;;39.13;23.67;;;;;;;18.89;75.53;100863.75;5079671;28;20114;-66
2021/08/01 09:57:19;;;;;;;38.13;22.52;;;;;;;20.01;71.78;100861.97;5075854;28;20490;-63
2021/08/01 09:59:49;;;;;;;37.45;22.52;;;;;;;19.61;71.73;100857.06;5078124;28;20482;-64
2021/08/01 10:02:14;;;;;;;37.30;21.83;;;;;;;19.62;71.84;100861.50;5078626;28;20044;-66
2021/08/01 10:04:42;;;;;;;37.88;22.10;;;;;;;19.70;70.26;100859.41;5080800;28;20039;-65
2021/08/01 10:07:13;;;;;;;36.92;21.40;;;;;;;19.73;69.79;100862.03;5076917;28;20154;-69
2021/08/01 10:09:40;;;;;;;34.83;20.58;;;;;;;19.79;70.20;100850.22;5078682;28;20024;-65
2021/08/01 10:12:06;;;;;;;35.17;20.55;;;;;;;19.85;69.09;100858.94;5076452;28;20020;-68
2021/08/01 10:14:33;;;;;;;37.70;21.92;;;;;;;19.93;68.62;100852.44;5071770;28;20029;-70
2021/08/01 10:16:59;;;;;;;37.58;22.27;;;;;;;19.92;68.04;100856.94;5073345;28;20038;-66
2021/08/01 10:19:24;;;;;;;37.10;20.55;;;;;;;19.77;70.07;100858.28;5077802;28;20377;-68
2021/08/01 10:21:53;;;;;;;35.97;20.73;;;;;;;19.69;69.74;100860.38;5076043;28;20028;-62
2021/08/01 10:24:24;;;;;;;37.67;22.70;;;;;;;19.32;71.33;100861.56;5080588;28;20039;-64
2021/08/01 10:26:52;;;;;;;37.67;22.55;;;;;;;19.15;72.34;100857.59;5075968;28;20123;-63
2021/08/01 10:29:32;;;;;;;36.17;21.75;;;;;;;18.93;73.51;100859.19;5072789;28;20067;-63
2021/08/01 10:32:04;;;;;;;39.65;23.48;;;;;;;18.61;74.80;100867.22;5077155;28;20529;-66
2021/08/01 10:34:53;;;;;;;44.13;26.55;;;;;;;17.74;89.31;100870.41;5074272;28;20521;-62
2021/08/01 10:37:30;;;;;;;46.63;28.52;;;;;;;17.08;100.00;100865.72;5071684;28;20017;-62
2021/08/01 10:39:57;;;;;;;45.45;29.02;;;;;;;16.77;100.00;100860.13;5072865;28;20048;-64
2021/08/01 10:42:28;;;;;;;50.17;31.27;;;;;;;16.64;100.00;100853.28;5073090;28;20095;-64
2021/08/01 10:44:53;;;;;;;50.08;32.22;;;;;;;16.54;100.00;100857.91;5073290;28;20025;-62
2021/08/01 10:47:20;;;;;;;53.45;33.30;;;;;;;16.46;100.00;100858.06;5073144;28;20031;-64
2021/08/01 10:49:47;;;;;;;57.72;34.40;;;;;;;16.54;100.00;100876.59;5073555;28;20048;-62
2021/08/01 10:52:17;;;;;;;57.85;34.42;;;;;;;16.48;100.00;100869.59;5072694;28;20024;-63
2021/08/01 10:54:57;;;;;;;57.47;34.13;;;;;;;16.17;100.00;100870.19;5073177;28;20032;-63
2021/08/01 10:57:23;;;;;;;55.08;34.83;;;;;;;16.12;100.00;100863.16;5072947;28;20416;-63
2021/08/01 10:59:49;;;;;;;55.63;33.58;;;;;;;16.25;100.00;100878.06;5073351;28;20094;-63
2021/08/01 11:02:16;;;;;;;50.67;33.00;;;;;;;16.20;100.00;100862.13;5072566;28;20384;-63